FOOLFOOG

Guest
Details From FOOL - Leon M Ba
To FOOG - Port Gentil
Flight Number -
Tags Generated
Created
Modified
Stats Distance 82 nm / 151 km
Max Altitude 0 ft / 0 m
Waypoints 2
Social Downloads 1
Likes 0
Share VATSIM

Download

Looking for another format? Having issues loading an existing format? Contact us
Advertisement - Login to hide

Notes

Generated

Route

FOOL FOOG

ID Type Via Altitude Latitude Longitude Leg Dist Tot Dist Heading (true) Name
O FOOL APT - 0 ft / 0 m 0.47081˚ 9.40635˚ - 0 nm - -
O FOOG APT - 0 ft / 0 m -0.71969˚ 8.75114˚ 81 nm 81 nm 209° / 209° -

Altitude Profile

Advertisement - Login to hide

FOOL

Details ICAO FOOL (LBV)
Name Leon M Ba
Region Gabon
Timezone Africa/Libreville (UTC+1.0)
Stats Elevation 39 ft / 12 m (AMSL)
Location 0.458616° 9.412250°
Runways 1
Magnetic Variation 1.936° W

METAR

FOOL 151500Z 24008KT 9000 TS FEW011 FEW018CB 29/25 Q1008 NOSIG

Decode

TAF

TAF FOOL 151100Z 1512/1618 22007KT 9999 SCT013 BKN030 TEMPO 1516/1520 TS SCT013 FEW016CB BKN030 PROB30 TEMPO 1608/1615 3000 TSRA BKN008 FEW016CB OVC023

Decode

Departure Runways

ID Width Length Bearing (true) Bearing (mag) Surface Threshold Offset Overrun Length
16 148 ft / 45 m 9,889 ft / 3,014 m 154.19° 156.13° Asphalt 0 ft / 0 m 192 ft / 59 m
34 148 ft / 45 m 9,889 ft / 3,014 m 334.19° 336.13° Asphalt 0 ft / 0 m 209 ft / 64 m

FOOG

Details ICAO FOOG (POG)
Name Port Gentil
Region Gabon
Timezone Africa/Libreville (UTC+1.0)
Stats Elevation 13 ft / 4 m (AMSL)
Location -0.711739° 8.754382°
Runways 1
Magnetic Variation 2.424° W

METAR

FOOG 151500Z 20013KT 9999 FEW010 FEW020CB SCT040 30/26 Q1008

Decode

TAF

TAF FOOG 151100Z 1512/1612 20008KT 9999 SCT013 FEW020CB BKN030 TEMPO 1518/1522 4500 RA PROB30 TEMPO 1602/1607 2500 TSRA BKN006 FEW016CB OVC023

Decode

Destination Runways

ID Width Length Bearing (true) Bearing (mag) Surface Threshold Offset Overrun Length
03 148 ft / 45 m 6,265 ft / 1,910 m 22.17° 24.59° Asphalt 0 ft / 0 m 0 ft / 0 m
21 148 ft / 45 m 6,265 ft / 1,910 m 202.17° 204.59° Asphalt 0 ft / 0 m 197 ft / 60 m

Popular Alternatives